Latest Coastal Weather Observations for Ceduna

IDS60701

Issued at 6:11 pm CST Tuesday 27 September 2016 (issued every 10 minutes, with the page automatically refreshed every 10 minutes)

About coastal observations | Map of coastal stations | Coastal observations for SA | Marine services | Other Formats
Station Details ID: 018012 Name: CEDUNA AMO Lat: -32.13 Lon: 133.70 Height: 15.3 m
Data from the previous 72 hours. | See also: Recent months at Ceduna
Date/Time
CST
Temp
°C
Wind Pressure Rain since
9am
mm
Weather Cloud Vis
km
Sea
Height
m
Swell
Dir  Spd
kts
Gust
kts
hPa Trend Height
m
Period
s
Dir
27/06:00pm 18.6 SSE 8 10 1011.6 F 0.0 - - 10 - - - -
27/05:30pm 19.8 SSE 8 10 1011.8 - 0.0 - - 10 - - - -
27/05:00pm 19.8 SSE 9 12 1012.0 - 0.0 - - 10 - - - -
27/04:30pm 20.5 S 6 9 1012.4 - 0.0 - - 10 - - - -
27/04:00pm 20.7 SSW 7 10 1012.7 - 0.0 - - 10 - - - -
27/03:30pm 20.7 SW 7 10 1013.2 - 0.0 - - 10 - - - -
27/03:00pm 20.1 SW 8 10 1013.7 F 0.0 - - 10 - - - -
27/02:30pm 20.7 SW 8 10 1014.0 - 0.0 - - 10 - - - -
27/02:00pm 20.3 WSW 7 10 1014.4 - 0.0 - - 10 - - - -
27/01:30pm 20.0 SSW 7 10 1014.8 - 0.0 - - 10 - - - -
27/01:00pm 20.1 SW 5 10 1015.3 - 0.0 - - 10 - - - -
27/12:30pm 20.0 SW 7 11 1015.8 - 0.0 - - 10 - - - -
27/12:00pm 19.0 SW 7 11 1016.3 F 0.0 - - 10 - - - -
27/11:30am 18.9 W 7 10 1016.8 - 0.0 - - 10 - - - -
27/11:00am 18.2 WNW 6 9 1017.1 - 0.0 - - 10 - - - -
27/10:30am 17.7 WSW 4 8 1017.5 - 0.0 - - 10 - - - -
27/10:00am 17.2 NW 4 6 1017.6 - 0.0 - - 10 - - - -
27/09:30am 16.5 N 5 7 1017.6 - 0.0 - - 10 - - - -
27/09:00am 14.9 N 7 9 1017.6 F 0.0 - - 10 - - - -
27/08:30am 13.9 N 7 9 1017.5 - 0.0 - - 10 - - - -
27/08:00am 11.2 N 6 8 1017.5 - 0.0 - - 10 - - - -
27/07:30am 8.3 N 5 7 1017.5 - 0.0 - - 10 - - - -
27/07:00am 4.9 N 5 6 1017.4 - 0.0 - - 10 - - - -
27/06:30am 2.9 N 4 5 1017.3 - 0.0 - - 10 - - - -
27/06:00am 3.0 N 5 5 1017.1 R 0.0 - - 10 - - - -
27/05:30am 1.9 NNE 5 6 1016.8 - 0.0 - - 10 - - - -
27/05:00am 3.2 NNW 4 4 1016.6 - 0.0 - - 10 - - - -
27/04:30am 3.4 NNW 5 5 1016.4 - 0.0 - - 10 - - - -
27/04:00am 3.6 N 5 5 1016.3 - 0.0 - - 10 - - - -
27/03:30am 3.8 N 7 7 1016.4 - 0.0 - - 10 - - - -
27/03:00am 4.0 N 7 8 1016.4 F 0.0 - - 10 - - - -
27/02:30am 3.7 N 5 7 1016.8 - 0.0 - - 10 - - - -
27/02:00am 3.9 N 6 6 1016.9 - 0.0 - - 10 - - - -
27/01:30am 2.6 NNE 3 4 1017.1 - 0.0 - - 10 - - - -
27/01:00am 3.0 NNE 3 4 1017.2 - 0.0 - - 10 - - - -
27/12:30am 4.0 NNE 5 5 1017.3 - 0.0 - - 10 - - - -
27/12:00am 5.4 N 5 5 1017.7 S 0.0 - - 10 - - - -
 
Date/Time
CST
Temp
°C
Wind Pressure Rain since
9am
mm
Weather Cloud Vis
km
Sea
Height
m
Swell
Dir  Spd
kts
Gust
kts
hPa Trend Height
m
Period
s
Dir
26/11:30pm 7.4 N 5 6 1017.8 - 0.0 - - 10 - - - -
26/11:00pm 8.8 NNW 5 6 1018.0 - 0.0 - Partly cloudy 10 - - - -
26/10:30pm 10.7 WNW 3 5 1018.1 - 0.0 - Partly cloudy 10 - - - -
26/10:00pm 12.4 W 7 9 1018.3 - 0.0 - Partly cloudy 10 - - - -
26/09:30pm 13.2 WSW 8 10 1018.4 - 0.0 - Cloudy 10 - - - -
26/09:00pm 12.9 W 7 10 1018.1 R 0.0 - Cloudy 10 - - - -
26/08:30pm 12.6 WSW 7 8 1018.0 - 0.0 - Partly cloudy 10 - - - -
26/08:00pm 12.4 SW 9 12 1017.8 - 0.0 - Partly cloudy 10 - - - -
26/07:30pm 12.1 WSW 9 12 1017.3 - 0.0 - Partly cloudy 10 - - - -
26/07:00pm 12.1 WSW 9 12 1017.0 - 0.0 - - 10 - - - -
26/06:30pm 12.7 SW 10 13 1016.9 - 0.0 - Partly cloudy 10 - - - -
26/06:00pm 13.6 SW 10 14 1016.8 R 0.0 - - 10 - - - -
26/05:30pm 14.3 SW 10 13 1016.5 - 0.0 - - 10 - - - -
26/05:00pm 15.1 SW 13 16 1016.2 - 0.0 - - 10 - - - -
26/04:30pm 15.2 WSW 14 18 1016.1 - 0.0 - - 10 - - - -
26/04:00pm 15.7 WSW 14 18 1015.6 - 0.0 - - 10 - - - -
26/03:30pm 15.9 WSW 12 15 1015.6 - 0.0 - - 10 - - - -
26/03:00pm 15.8 WSW 13 17 1015.6 R 0.0 - - 10 - - - -
26/02:30pm 16.3 WSW 14 18 1015.6 - 0.0 - - 10 - - - -
26/02:00pm 16.6 WSW 13 18 1015.7 - 0.0 - - 10 - - - -
26/01:30pm 16.8 WSW 13 17 1015.8 - 0.0 - - 10 - - - -
26/01:00pm 16.6 SW 13 19 1015.9 - 0.0 - - 10 - - - -
26/12:30pm 16.8 SW 13 17 1016.0 - 0.0 - Partly cloudy 10 - - - -
26/12:00pm 17.0 SSW 12 16 1016.3 R 0.0 - Cloudy 10 - - - -
26/11:30am 16.6 SW 13 16 1016.3 - 0.0 - Partly cloudy 10 - - - -
26/11:00am 16.6 SSW 12 15 1016.2 - 0.0 - Partly cloudy 10 - - - -
26/10:30am 16.9 SSW 12 15 1016.2 - 0.0 - Partly cloudy 10 - - - -
26/10:00am 16.1 SSW 13 17 1016.2 - 0.0 - Partly cloudy 10 - - - -
26/09:30am 16.2 SSW 13 16 1016.0 - 0.0 - Partly cloudy 10 - - - -
26/09:00am 16.2 SSW 11 16 1015.7 R 0.0 - Mostly clear 10 - - - -
26/08:30am 15.7 SSW 13 16 1015.2 - 0.0 - Partly cloudy 10 - - - -
26/08:00am 15.5 SSW 11 14 1014.9 - 0.0 - Partly cloudy 10 - - - -
26/07:30am 14.7 SSW 13 18 1014.7 - 0.0 - Partly cloudy 10 - - - -
26/07:16am 13.1 WSW 3 13 1014.5 - 0.0 - Partly cloudy 10 - - - -
26/07:00am 8.1 CALM 0 0 1014.2 - 0.0 - - 10 - - - -
26/06:30am 8.2 NNW 5 6 1013.9 - 0.0 - - 10 - - - -
26/06:00am 10.8 WNW 7 8 1013.5 R 0.0 - Partly cloudy 10 - - - -
26/05:30am 11.5 W 5 7 1012.9 - 0.0 - - 10 - - - -
26/05:00am 13.5 WNW 11 16 1012.9 - 0.0 - Partly cloudy 10 - - - -
26/04:30am 11.6 WNW 11 21 1012.3 - 0.0 - - 10 - - - -
26/04:26am 10.2 WNW 7 21 1012.4 - 0.0 - - 10 - - - -
26/04:00am 9.9 NNE 5 9 1011.0 - 0.0 - Partly cloudy 10 - - - -
26/03:30am 7.7 NE 6 7 1010.9 - 0.0 - - 10 - - - -
26/03:00am 8.4 ENE 5 7 1010.8 F 0.0 - Mostly cloudy 10 - - - -
26/02:30am 9.3 NE 7 9 1011.1 - 0.0 - Partly cloudy 10 - - - -
26/02:00am 10.1 NE 10 12 1011.5 - 0.0 - Partly cloudy 10 - - - -
26/01:30am 9.0 NE 10 12 1011.6 - 0.0 - - 10 - - - -
26/01:00am 9.0 NE 10 13 1011.9 - 0.0 - - 10 - - - -
26/12:30am 9.1 NE 11 13 1012.6 - 0.0 - - 10 - - - -
26/12:00am 9.5 NE 12 14 1013.0 F 0.0 - - 10 - - - -
 
Date/Time
CST
Temp
°C
Wind Pressure Rain since
9am
mm
Weather Cloud Vis
km
Sea
Height
m
Swell
Dir  Spd
kts
Gust
kts
hPa Trend Height
m
Period
s
Dir
25/11:30pm 8.3 ENE 8 11 1013.4 - 0.0 - - 10 - - - -
25/11:00pm 8.0 NE 9 11 1013.7 - 0.0 - - 10 - - - -
25/10:30pm 6.3 ENE 8 10 1014.4 - 0.0 - - 10 - - - -
25/10:00pm 6.8 ENE 9 11 1015.0 - 0.0 - - 10 - - - -
25/09:30pm 6.9 ENE 8 10 1015.4 - 0.0 - - 10 - - - -
25/09:00pm 7.1 ENE 7 8 1015.4 R 0.0 - - 10 - - - -
25/08:30pm 7.4 ENE 6 6 1015.2 - 0.0 - - 10 - - - -
25/08:00pm 7.8 ESE 4 5 1015.0 - 0.0 - - 10 - - - -
25/07:30pm 9.2 E 5 7 1014.5 - 0.0 - - 10 - - - -
25/07:00pm 11.2 SE 6 7 1014.0 - 0.0 - - 10 - - - -
25/06:30pm 14.0 SE 7 8 1013.6 - 0.0 - - 10 - - - -
25/06:00pm 16.0 SSE 8 11 1013.6 F 0.0 - - 10 - - - -
25/05:30pm 16.9 S 11 14 1013.5 - 0.0 - - 10 - - - -
25/05:00pm 17.6 SSW 10 13 1013.2 - 0.0 - - 10 - - - -
25/04:30pm 17.6 SSW 11 13 1013.2 - 0.0 - - 10 - - - -
25/04:00pm 18.8 SSW 10 15 1013.2 - 0.0 - - 10 - - - -
25/03:30pm 18.8 SW 10 12 1013.4 - 0.0 - - 10 - - - -
25/03:00pm 18.5 SW 10 13 1013.7 F 0.0 - - 10 - - - -
25/02:30pm 19.2 SSW 8 12 1013.9 - 0.0 - - 10 - - - -
25/02:00pm 18.9 WSW 6 9 1014.3 - 0.0 - - 10 - - - -
25/01:30pm 18.7 W 8 11 1014.9 - 0.0 - - 10 - - - -
25/01:00pm 18.4 W 7 11 1015.4 - 0.0 - - 10 - - - -
25/12:30pm 18.1 W 7 11 1016.0 - 0.0 - - 10 - - - -
25/12:00pm 17.8 WSW 4 8 1016.6 F 0.0 - - 10 - - - -
25/11:30am 16.9 SW 3 7 1016.9 - 0.0 - - 10 - - - -
25/11:00am 16.4 W 7 11 1017.2 - 0.0 - - 10 - - - -
25/10:30am 17.0 NW 5 10 1017.5 - 0.0 - - 10 - - - -
25/10:00am 16.0 NNW 7 10 1017.6 - 0.0 - - 10 - - - -
25/09:30am 14.8 N 5 9 1017.6 - 0.0 - - 10 - - - -
25/09:00am 14.2 N 9 11 1017.5 F 0.0 - - 10 - - - -
25/08:30am 12.7 N 8 10 1017.5 - 0.0 - - 10 - - - -
25/08:00am 10.3 N 6 8 1017.5 - 0.0 - - 10 - - - -
25/07:30am 6.3 N 4 5 1017.3 - 0.0 - - 10 - - - -
25/07:00am 3.5 N 5 7 1017.0 - 0.0 - - 10 - - - -
25/06:30am 2.7 N 6 7 1017.0 - 0.0 - Partly cloudy 10 - - - -
25/06:00am 2.3 N 4 5 1016.9 R 0.0 - Partly cloudy 10 - - - -
25/05:30am 2.7 N 5 6 1016.8 - 0.0 - Partly cloudy 10 - - - -
25/05:00am 2.7 NNW 5 6 1016.8 - 0.0 - - 10 - - - -
25/04:30am 1.8 N 4 5 1016.4 - 0.0 - Partly cloudy 10 - - - -
25/04:00am 2.4 NNW 5 5 1016.2 - 0.0 - - 10 - - - -
25/03:30am 2.6 NNW 5 6 1016.1 - 0.0 - - 10 - - - -
25/03:00am 3.2 NNW 5 6 1016.2 R 0.0 - - 10 - - - -
25/02:30am 3.0 N 6 6 1016.3 - 0.0 - - 10 - - - -
25/02:00am 2.9 N 6 7 1016.3 - 0.0 - - 10 - - - -
25/01:30am 4.3 N 7 7 1016.5 - 0.0 - - 10 - - - -
25/01:00am 4.9 N 4 5 1016.6 - 0.0 - - 10 - - - -
25/12:30am 5.3 N 5 6 1017.0 - 0.0 - Partly cloudy 10 - - - -
25/12:00am 6.0 NNW 6 7 1016.9 R 0.0 - - 10 - - - -
 
Date/Time
CST
Temp
°C
Wind Pressure Rain since
9am
mm
Weather Cloud Vis
km
Sea
Height
m
Swell
Dir  Spd
kts
Gust
kts
hPa Trend Height
m
Period
s
Dir
24/11:30pm 9.6 SW 6 7 1016.7 - 0.0 - - 10 - - - -
24/11:00pm 10.5 SSW 7 10 1016.5 - 0.0 - Partly cloudy 10 - - - -
24/10:30pm 10.1 SW 6 10 1016.9 - 0.0 - Partly cloudy 10 - - - -
24/10:00pm 11.6 SW 9 12 1017.2 - 0.0 - Partly cloudy 10 - - - -
24/09:30pm 11.9 SW 10 14 1017.0 - 0.0 - - 10 - - - -
24/09:00pm 12.1 SW 10 13 1016.6 R 0.0 - - 10 - - - -
24/08:30pm 12.5 SW 13 17 1016.4 - 0.0 - Partly cloudy 10 - - - -
24/08:00pm 12.6 SW 12 17 1016.0 - 0.0 - Partly cloudy 10 - - - -
24/07:30pm 12.8 SW 14 20 1015.7 - 0.0 - Partly cloudy 10 - - - -
24/07:00pm 13.4 SW 12 16 1015.4 - 0.0 - Partly cloudy 10 - - - -
24/06:30pm 13.3 SW 14 18 1015.1 - 0.0 - Partly cloudy 10 - - - -

Other Formats:

Comma delimited format used in spreadsheet applications
http://www.bom.gov.au/fwo/IDS60701/IDS60701.94653.axf

JavaScript Object Notation format (JSON) in row-major order
http://www.bom.gov.au/fwo/IDS60701/IDS60701.94653.json